Skip to main content

NOAA/GLERL Met Station at Muskegon Pier Light, MI

Previous 3 Hours (2 minute increments)
See also Previous 5 Days (top of hour)
Jump down to Data
Switch to [English][Metric]
Zoom: Click and drag, Pan: shift-click and drag, Unzoom: double-click, Unzoom All





See also 1-day windrose plot


NOAA/GLERL Met Station at Muskegon Pier Light, MI

Previous 3 Hours (2 minute increments)
See also Previous 5 Days (top of hour only)
Jump up to Graphs
Switch to [English][Metric]
                  Wind  Wind  Wind   Air   Dew   Rel     Sta
                   Spd   Gst   Dir  Temp    Pt   Hum    Pres
YYYY-MM-DD   EDT   kts   kts   deg     F     F     %   in Hg
2024-05-23 07:42  12.4  14.4   259  57.9  52.2  81.1   29.22
2024-05-23 07:40  12.8  14.6   260  58.1  52.0  79.8   29.22
2024-05-23 07:38  12.4  15.2   257  57.9  52.0  80.5   29.22
2024-05-23 07:36  12.8  14.8   257  57.7  52.0  80.7   29.22
2024-05-23 07:34  12.4  14.2   257  57.7  52.3  82.1   29.22
2024-05-23 07:32  12.1  13.8   256  57.6  52.3  82.3   29.22
2024-05-23 07:30  13.0  14.6   255  57.6  52.0  81.1   29.22
2024-05-23 07:28  13.8  15.6   255  57.6  51.6  80.7   29.22
2024-05-23 07:26  13.2  14.6   255  57.6  52.0  81.5   29.22
2024-05-23 07:24  13.4  16.5   255  57.7  51.6  80.1   29.22
2024-05-23 07:22  14.2  16.9   257  57.7  51.6  80.0   29.21
2024-05-23 07:20  14.8  15.9   258  57.9  51.4  78.6   29.21
2024-05-23 07:18  14.2  16.1   260  58.1  51.6  78.9   29.21
2024-05-23 07:16  14.0  15.2   261  57.7  51.6  80.1   29.21
2024-05-23 07:14  14.0  15.7   262  57.6  51.6  80.5   29.21
2024-05-23 07:12  13.6  15.2   260  57.6  51.6  80.2   29.21
2024-05-23 07:10  13.8  15.7   264  57.6  51.6  80.3   29.21
2024-05-23 07:08  12.6  14.2   261  57.4  52.0  82.2   29.21
2024-05-23 07:06  12.8  15.0   257  57.2  51.6  81.6   29.21
2024-05-23 07:04  11.9  14.4   254  57.2  52.2  83.1   29.21
2024-05-23 07:02  11.7  13.2   250  57.4  52.3  82.9   29.21
2024-05-23 07:00  12.1  14.0   251  57.6  52.2  81.9   29.21
2024-05-23 06:58  12.4  14.2   250  57.6  52.2  81.8   29.20
2024-05-23 06:56  12.4  13.8   247  57.7  52.2  81.8   29.20
2024-05-23 06:54  12.2  13.8   248  57.9  52.3  81.6   29.20
2024-05-23 06:52  13.0  14.6   249  58.3  52.3  80.3   29.20
2024-05-23 06:50  13.6  15.2   254  58.5  52.0  79.0   29.20
2024-05-23 06:48  13.8  15.2   259  58.6  52.2  78.8   29.20
2024-05-23 06:46  13.6  14.8   262  58.5  52.2  79.2   29.20
2024-05-23 06:44  14.0  15.6   264  58.5  52.0  79.3   29.20
2024-05-23 06:42  13.6  15.6   263  58.5  52.2  79.3   29.20
2024-05-23 06:40  14.0  15.6   264  58.6  52.0  78.9   29.20
2024-05-23 06:38  13.4  14.6   264  58.6  52.2  78.8   29.20
2024-05-23 06:36  14.6  16.5   262  58.6  51.6  77.4   29.19
2024-05-23 06:34  14.2  16.3   263  58.5  52.0  78.5   29.19
2024-05-23 06:32  14.4  16.7   261  58.5  52.0  79.1   29.19
2024-05-23 06:30  14.4  15.9   261  58.3  51.8  79.0   29.19
2024-05-23 06:28  13.6  15.2   260  58.3  52.2  80.2   29.19
2024-05-23 06:26  14.8  16.1   261  58.3  52.0  79.4   29.19
2024-05-23 06:24  14.4  15.6   263  58.3  52.0  79.1   29.19
2024-05-23 06:22  15.0  16.5   262  58.5  51.8  78.8   29.19
2024-05-23 06:20  15.0  15.9   261  58.1  51.8  79.1   29.19
2024-05-23 06:18  14.6  16.9   260  57.9  52.0  80.3   29.19
2024-05-23 06:16  14.6  16.3   258  57.7  52.0  80.5   29.19
2024-05-23 06:14  13.6  14.8   256  57.7  52.2  81.2   29.19
2024-05-23 06:12  13.8  15.2   255  57.7  52.0  80.8   29.19
2024-05-23 06:10  14.2  15.7   254  57.7  51.8  80.1   29.19
2024-05-23 06:08  14.0  15.6   254  57.9  51.8  80.2   29.19
2024-05-23 06:06  14.0  15.4   257  57.9  52.0  80.4   29.19
2024-05-23 06:04  14.6  15.9   257  57.9  51.8  80.2   29.19
2024-05-23 06:02  13.8  15.6   257  57.9  52.2  80.9   29.19
2024-05-23 06:00  14.2  16.3   255  57.7  51.8  80.1   29.19
2024-05-23 05:58  14.0  15.7   254  57.7  51.8  80.4   29.19
2024-05-23 05:56  13.8  16.1   252  57.7  51.8  80.5   29.19
2024-05-23 05:54  13.8  15.0   250  57.6  51.4  80.4   29.19
2024-05-23 05:52  12.8  14.2   249  57.4  51.8  81.9   29.19
2024-05-23 05:50  13.4  14.6   248  57.2  51.4  81.0   29.20
2024-05-23 05:48  13.4  15.6   250  56.8  51.3  81.6   29.20
2024-05-23 05:46  12.1  14.0   244  56.3  51.6  84.4   29.20
2024-05-23 05:44  11.3  13.0   231  55.9  52.0  86.3   29.20
2024-05-23 05:42  11.9  13.2   228  56.7  52.0  84.8   29.20
2024-05-23 05:40  12.8  15.4   235  57.4  51.6  81.2   29.20
2024-05-23 05:38  13.6  15.7   243  57.2  51.6  81.6   29.20
2024-05-23 05:36  11.1  13.0   234  57.0  52.9  85.9   29.20
2024-05-23 05:34  10.7  12.8   230  57.6  53.2  85.3   29.20
2024-05-23 05:32  11.7  13.0   235  57.9  52.9  83.2   29.20
2024-05-23 05:30  12.6  14.2   243  58.5  52.5  80.7   29.20
2024-05-23 05:28  13.6  15.4   246  58.8  52.5  79.5   29.20
2024-05-23 05:26  13.8  15.2   252  58.6  52.2  78.8   29.20
2024-05-23 05:24  14.6  15.9   252  58.6  52.0  78.1   29.20
2024-05-23 05:22  14.8  16.7   256  58.6  52.0  78.1   29.20
2024-05-23 05:20  14.8  17.1   257  58.8  52.0  77.8   29.20
2024-05-23 05:18  16.1  17.3   260  58.8  51.4  76.5   29.20
2024-05-23 05:16  15.4  17.1   261  59.0  51.8  76.9   29.20
2024-05-23 05:14  15.2  17.7   261  59.0  51.8  76.8   29.20
2024-05-23 05:12  15.4  17.3   262  58.8  51.6  77.2   29.20
2024-05-23 05:10  15.2  16.5   263  58.5  51.6  78.0   29.20
2024-05-23 05:08  15.2  16.3   263  58.3  51.8  78.8   29.20
2024-05-23 05:06  15.0  17.1   262  58.1  51.6  78.8   29.20
2024-05-23 05:04  14.4  16.1   260  58.1  51.8  79.3   29.20
2024-05-23 05:02  14.6  16.1   260  58.1  51.6  78.7   29.20
2024-05-23 05:00  14.0  14.8   257  57.9  51.8  80.2   29.20
2024-05-23 04:58  15.6  16.7   258  57.7  51.4  79.4   29.20
2024-05-23 04:56  15.4  16.7   257  57.7  51.3  79.0   29.20
2024-05-23 04:54  14.6  16.3   257  57.9  51.4  79.2   29.20
2024-05-23 04:52  15.0  16.9   258  57.9  51.4  78.8   29.19
2024-05-23 04:50  13.8  15.7   256  57.9  51.6  79.5   29.20
2024-05-23 04:48  14.4  16.9   256  57.9  51.6  79.4   29.20
2024-05-23 04:46  13.4  15.4   255  57.6  51.6  80.5   29.20
2024-05-23 04:44  13.6  15.0   254  57.6  51.4  79.8   29.20
2024-05-23 04:42  14.0  15.9   252  57.6  51.3  79.2   29.20